createdAt,value
2023-02-18T00:00:04.286Z,1012.90
2023-02-18T00:01:05.441Z,1012.82
2023-02-18T00:02:04.743Z,1012.85
2023-02-18T00:03:04.921Z,1012.83
2023-02-18T00:04:05.124Z,1012.91
2023-02-18T00:05:05.979Z,1012.82
2023-02-18T00:06:05.655Z,1012.82
2023-02-18T00:07:05.735Z,1012.80
2023-02-18T00:08:05.933Z,1012.83
2023-02-18T00:09:06.079Z,1012.83
2023-02-18T00:10:06.244Z,1012.83
2023-02-18T00:11:06.402Z,1012.86
2023-02-18T00:12:06.602Z,1012.87
2023-02-18T00:13:06.770Z,1012.86
2023-02-18T00:14:07.459Z,1012.87
2023-02-18T00:15:07.074Z,1012.89
2023-02-18T00:16:07.662Z,1012.83
2023-02-18T00:17:07.448Z,1012.86
2023-02-18T00:18:07.587Z,1012.92
2023-02-18T00:19:07.770Z,1012.86
2023-02-18T00:20:07.913Z,1012.79
2023-02-18T00:21:09.439Z,1012.82
2023-02-18T00:22:08.189Z,1012.83
2023-02-18T00:23:08.985Z,1012.93
2023-02-18T00:24:09.441Z,1012.97
2023-02-18T00:25:08.725Z,1012.93
2023-02-18T00:26:10.289Z,1012.88
2023-02-18T00:27:09.985Z,1012.91
2023-02-18T00:28:09.245Z,1012.81
2023-02-18T00:29:09.379Z,1012.81
2023-02-18T00:30:09.552Z,1012.91
2023-02-18T00:31:10.560Z,1012.88
2023-02-18T00:32:09.903Z,1012.88
2023-02-18T00:33:10.091Z,1012.89
2023-02-18T00:34:10.503Z,1012.80
2023-02-18T00:35:10.391Z,1012.85
2023-02-18T00:36:11.949Z,1012.81
2023-02-18T00:37:10.690Z,1012.78
2023-02-18T00:38:10.824Z,1012.79
2023-02-18T00:39:10.968Z,1012.80
2023-02-18T00:40:11.128Z,1012.81
2023-02-18T00:41:11.282Z,1012.83
2023-02-18T00:42:11.501Z,1012.83
2023-02-18T00:43:11.665Z,1012.77
2023-02-18T00:44:12.474Z,1012.80
2023-02-18T00:45:12.000Z,1012.79
2023-02-18T00:46:12.220Z,1012.74
2023-02-18T00:47:12.974Z,1012.70
2023-02-18T00:48:12.600Z,1012.71
2023-02-18T00:49:12.748Z,1012.70
2023-02-18T00:50:12.926Z,1012.66
2023-02-18T00:51:13.113Z,1012.68
2023-02-18T00:52:13.282Z,1012.63
2023-02-18T00:53:13.461Z,1012.61
2023-02-18T00:54:13.769Z,1012.58
2023-02-18T00:55:15.954Z,1012.50
2023-02-18T00:56:14.948Z,1012.59
2023-02-18T00:57:14.096Z,1012.52
2023-02-18T00:58:14.294Z,1012.44
2023-02-18T00:59:14.445Z,1012.54
2023-02-18T01:00:14.617Z,1012.52
2023-02-18T01:01:14.819Z,1012.59
2023-02-18T01:02:15.021Z,1012.57
2023-02-18T01:03:16.469Z,1012.49
2023-02-18T01:04:15.372Z,1012.56
2023-02-18T01:05:16.964Z,1012.55
2023-02-18T01:06:15.721Z,1012.58
2023-02-18T01:07:15.911Z,1012.55
2023-02-18T01:08:16.096Z,1012.54
2023-02-18T01:09:16.275Z,1012.51
2023-02-18T01:10:19.195Z,1012.54
2023-02-18T01:11:17.655Z,1012.57
2023-02-18T01:12:16.779Z,1012.61
2023-02-18T01:13:16.993Z,1012.50
2023-02-18T01:14:17.194Z,1012.47
2023-02-18T01:15:17.409Z,1012.36
2023-02-18T01:16:17.527Z,1012.44
2023-02-18T01:17:17.713Z,1012.33
2023-02-18T01:18:19.331Z,1012.52
2023-02-18T01:19:18.099Z,1012.38
2023-02-18T01:20:18.343Z,1012.45
2023-02-18T01:21:18.556Z,1012.50
2023-02-18T01:22:19.461Z,1012.57
2023-02-18T01:23:18.877Z,1012.50
2023-02-18T01:24:19.047Z,1012.54
2023-02-18T01:25:19.967Z,1012.48
2023-02-18T01:26:19.377Z,1012.51
2023-02-18T01:27:19.611Z,1012.44
2023-02-18T01:28:19.805Z,1012.49
2023-02-18T01:29:20.504Z,1012.56
2023-02-18T01:30:20.225Z,1012.53
2023-02-18T01:31:21.056Z,1012.56
2023-02-18T01:32:20.668Z,1012.58
2023-02-18T01:33:20.858Z,1012.56
2023-02-18T01:34:21.034Z,1012.57
2023-02-18T01:35:21.247Z,1012.50
2023-02-18T01:36:21.424Z,1012.44
2023-02-18T01:37:21.626Z,1012.47
2023-02-18T01:38:21.810Z,1012.51
2023-02-18T01:39:22.034Z,1012.43
2023-02-18T01:40:22.240Z,1012.44
2023-02-18T01:41:22.423Z,1012.51
2023-02-18T01:42:24.471Z,1012.47
2023-02-18T01:43:22.752Z,1012.47
2023-02-18T01:44:22.962Z,1012.46
2023-02-18T01:45:23.970Z,1012.44
2023-02-18T01:46:24.512Z,1012.45
2023-02-18T01:47:24.008Z,1012.40
2023-02-18T01:48:23.682Z,1012.41
2023-02-18T01:49:24.466Z,1012.43
2023-02-18T01:50:24.967Z,1012.34
2023-02-18T01:51:24.248Z,1012.23
2023-02-18T01:52:24.422Z,1012.34
2023-02-18T01:53:24.583Z,1012.30
2023-02-18T01:54:24.757Z,1012.27
2023-02-18T01:55:25.969Z,1012.30
2023-02-18T01:56:26.467Z,1012.28
2023-02-18T01:57:25.240Z,1012.21
2023-02-18T01:58:25.969Z,1012.26
2023-02-18T01:59:25.598Z,1012.22
2023-02-18T02:00:25.780Z,1012.21
2023-02-18T02:01:25.942Z,1012.17
2023-02-18T02:02:26.134Z,1012.16
2023-02-18T02:03:27.012Z,1012.17
2023-02-18T02:04:26.532Z,1012.12
2023-02-18T02:05:27.513Z,1012.09
2023-02-18T02:06:27.470Z,1012.16
2023-02-18T02:07:27.840Z,1012.14
2023-02-18T02:08:27.355Z,1012.16
2023-02-18T02:09:27.517Z,1012.16
2023-02-18T02:10:27.676Z,1012.15
2023-02-18T02:11:27.823Z,1012.17
2023-02-18T02:12:28.012Z,1012.20
2023-02-18T02:13:28.167Z,1012.15
2023-02-18T02:14:28.971Z,1012.14
2023-02-18T02:15:28.519Z,1012.17
2023-02-18T02:16:29.462Z,1012.17
2023-02-18T02:17:29.479Z,1012.21
2023-02-18T02:18:29.007Z,1012.17
2023-02-18T02:19:31.476Z,1012.16
2023-02-18T02:20:29.998Z,1012.21
2023-02-18T02:21:31.012Z,1012.15
2023-02-18T02:22:31.834Z,1012.20
2023-02-18T02:23:30.519Z,1012.20
2023-02-18T02:24:30.166Z,1012.14
2023-02-18T02:25:31.835Z,1012.20
2023-02-18T02:26:30.465Z,1012.14
2023-02-18T02:27:30.645Z,1012.12
2023-02-18T02:28:30.811Z,1012.13
2023-02-18T02:29:30.977Z,1012.07
2023-02-18T02:30:31.175Z,1012.15
2023-02-18T02:31:31.996Z,1012.16
2023-02-18T02:32:31.535Z,1012.06
2023-02-18T02:33:31.685Z,1012.14
2023-02-18T02:34:31.868Z,1012.17
2023-02-18T02:35:32.020Z,1012.12
2023-02-18T02:36:32.983Z,1012.01
2023-02-18T02:37:32.385Z,1012.03
2023-02-18T02:38:32.556Z,1012.01
2023-02-18T02:39:33.481Z,1012.02
2023-02-18T02:40:32.898Z,1012.06
2023-02-18T02:41:33.097Z,1012.01
2023-02-18T02:42:34.840Z,1011.97
2023-02-18T02:43:33.457Z,1011.90
2023-02-18T02:44:33.661Z,1011.92
2023-02-18T02:45:33.875Z,1011.87
2023-02-18T02:46:34.060Z,1011.92
2023-02-18T02:47:34.533Z,1011.83
2023-02-18T02:48:35.429Z,1011.85
2023-02-18T02:49:34.553Z,1011.87
2023-02-18T02:50:34.704Z,1011.79
2023-02-18T02:51:34.882Z,1011.82
2023-02-18T02:52:35.059Z,1011.81
2023-02-18T02:53:35.249Z,1011.83
2023-02-18T02:54:35.496Z,1011.85
2023-02-18T02:55:35.594Z,1011.89
2023-02-18T02:56:36.537Z,1011.79
2023-02-18T02:57:35.961Z,1011.80
2023-02-18T02:58:36.132Z,1011.78
2023-02-18T02:59:37.326Z,1011.86
2023-02-18T03:00:36.991Z,1011.71
2023-02-18T03:01:37.489Z,1011.81
2023-02-18T03:02:36.786Z,1011.82
2023-02-18T03:03:36.988Z,1011.83
2023-02-18T03:04:38.181Z,1011.76
2023-02-18T03:05:39.042Z,1011.85
2023-02-18T03:06:38.526Z,1011.83
2023-02-18T03:07:39.496Z,1011.86
2023-02-18T03:08:37.988Z,1011.80
2023-02-18T03:09:38.151Z,1011.81
2023-02-18T03:10:38.397Z,1011.82
2023-02-18T03:11:39.561Z,1011.74
2023-02-18T03:12:38.714Z,1011.81
2023-02-18T03:13:38.875Z,1011.73
2023-02-18T03:14:39.041Z,1011.76
2023-02-18T03:15:39.235Z,1011.71
2023-02-18T03:16:40.042Z,1011.69
2023-02-18T03:17:39.602Z,1011.58
2023-02-18T03:18:39.783Z,1011.54
2023-02-18T03:19:39.988Z,1011.54
2023-02-18T03:20:40.181Z,1011.50
2023-02-18T03:21:41.370Z,1011.58
2023-02-18T03:22:41.861Z,1011.61
2023-02-18T03:23:40.734Z,1011.55
2023-02-18T03:24:41.498Z,1011.61
2023-02-18T03:25:41.143Z,1011.44
2023-02-18T03:26:42.013Z,1011.47
2023-02-18T03:27:42.363Z,1011.37
2023-02-18T03:28:42.538Z,1011.30
2023-02-18T03:29:41.927Z,1011.30
2023-02-18T03:30:43.018Z,1011.30
2023-02-18T03:31:42.381Z,1011.27
2023-02-18T03:32:43.039Z,1011.17
2023-02-18T03:33:43.509Z,1011.14
2023-02-18T03:34:43.550Z,1011.17
2023-02-18T03:35:43.071Z,1011.12
2023-02-18T03:36:44.037Z,1011.04
2023-02-18T03:37:44.000Z,1011.14
2023-02-18T03:38:43.545Z,1011.12
2023-02-18T03:39:44.366Z,1011.08
2023-02-18T03:40:43.870Z,1011.09
2023-02-18T03:41:44.059Z,1011.11
2023-02-18T03:42:46.502Z,1011.07
2023-02-18T03:43:45.009Z,1011.11
2023-02-18T03:44:45.042Z,1011.07
2023-02-18T03:45:44.736Z,1011.07
2023-02-18T03:46:45.866Z,1011.06
2023-02-18T03:47:45.135Z,1011.00
2023-02-18T03:48:45.342Z,1011.06
2023-02-18T03:49:45.504Z,1010.97
2023-02-18T03:50:46.505Z,1010.92
2023-02-18T03:51:45.943Z,1010.89
2023-02-18T03:52:46.089Z,1010.96
2023-02-18T03:53:47.012Z,1010.89
2023-02-18T03:54:46.409Z,1010.91
2023-02-18T03:55:46.593Z,1010.90
2023-02-18T03:56:46.770Z,1010.90
2023-02-18T03:57:46.939Z,1010.99
2023-02-18T03:58:47.115Z,1010.97
2023-02-18T03:59:47.297Z,1010.91
2023-02-18T04:00:47.468Z,1010.92
2023-02-18T04:01:47.649Z,1010.88
2023-02-18T04:02:49.003Z,1010.88
2023-02-18T04:03:48.010Z,1010.88
2023-02-18T04:04:48.181Z,1010.85
2023-02-18T04:05:48.862Z,1010.84
2023-02-18T04:06:49.506Z,1010.84
2023-02-18T04:07:50.508Z,1010.79
2023-02-18T04:09:21.303Z,1010.81
2023-02-18T04:09:49.578Z,1010.89
2023-02-18T04:10:50.034Z,1010.74
2023-02-18T04:11:50.533Z,1010.84
2023-02-18T04:12:49.675Z,1010.81
2023-02-18T04:13:50.575Z,1010.79
2023-02-18T04:14:50.536Z,1010.76
2023-02-18T04:15:50.201Z,1010.84
2023-02-18T04:16:51.112Z,1010.76
2023-02-18T04:17:50.624Z,1010.79
2023-02-18T04:18:51.088Z,1010.75
2023-02-18T04:19:51.005Z,1010.84
2023-02-18T04:20:51.184Z,1010.69
2023-02-18T04:21:51.343Z,1010.73
2023-02-18T04:22:51.521Z,1010.72
2023-02-18T04:23:51.715Z,1010.75
2023-02-18T04:24:51.887Z,1010.76
2023-02-18T04:25:52.066Z,1010.66
2023-02-18T04:26:54.035Z,1010.64
2023-02-18T04:27:52.392Z,1010.61
2023-02-18T04:28:53.538Z,1010.59
2023-02-18T04:29:53.536Z,1010.68
2023-02-18T04:30:52.954Z,1010.60
2023-02-18T04:31:53.146Z,1010.57
2023-02-18T04:32:54.082Z,1010.58
2023-02-18T04:33:53.482Z,1010.62
2023-02-18T04:34:55.036Z,1010.55
2023-02-18T04:35:54.587Z,1010.45
2023-02-18T04:36:54.095Z,1010.52
2023-02-18T04:37:55.039Z,1010.44
2023-02-18T04:38:54.303Z,1010.44
2023-02-18T04:39:56.042Z,1010.44
2023-02-18T04:40:54.654Z,1010.39
2023-02-18T04:41:54.827Z,1010.44
2023-02-18T04:42:54.996Z,1010.38
2023-02-18T04:43:55.135Z,1010.36
2023-02-18T04:44:55.338Z,1010.43
2023-02-18T04:45:55.555Z,1010.36
2023-02-18T04:46:56.541Z,1010.27
2023-02-18T04:47:55.780Z,1010.25
2023-02-18T04:48:56.541Z,1010.27
2023-02-18T04:49:56.060Z,1010.25
2023-02-18T04:50:58.544Z,1010.24
2023-02-18T04:51:57.051Z,1010.18
2023-02-18T04:52:56.538Z,1010.16
2023-02-18T04:53:56.676Z,1010.18
2023-02-18T04:54:56.802Z,1010.21
2023-02-18T04:55:57.614Z,1010.12
2023-02-18T04:56:57.223Z,1010.15
2023-02-18T04:57:58.123Z,1010.12
2023-02-18T04:58:57.486Z,1010.15
2023-02-18T04:59:57.645Z,1010.15
2023-02-18T05:00:59.115Z,1010.22
2023-02-18T05:01:58.551Z,1010.17
2023-02-18T05:02:58.176Z,1010.18
2023-02-18T05:03:59.076Z,1010.12
2023-02-18T05:04:58.458Z,1010.11
2023-02-18T05:05:58.601Z,1010.15
2023-02-18T05:06:58.891Z,1010.19
2023-02-18T05:07:59.551Z,1010.09
2023-02-18T05:08:59.085Z,1010.10
2023-02-18T05:09:59.239Z,1010.18
2023-02-18T05:10:59.412Z,1010.16
2023-02-18T05:12:00.574Z,1010.22
2023-02-18T05:13:00.556Z,1010.11
2023-02-18T05:13:59.947Z,1010.16
2023-02-18T05:15:01.098Z,1010.13
2023-02-18T05:16:01.084Z,1010.13
2023-02-18T05:17:01.049Z,1010.05
2023-02-18T05:18:00.691Z,1010.02
2023-02-18T05:19:01.112Z,1010.06
2023-02-18T05:20:01.026Z,1009.98
2023-02-18T05:21:02.100Z,1010.00
2023-02-18T05:22:01.369Z,1010.01
2023-02-18T05:23:01.543Z,1010.02
2023-02-18T05:24:01.712Z,1009.95
2023-02-18T05:25:01.875Z,1009.95
2023-02-18T05:26:02.052Z,1009.92
2023-02-18T05:27:02.205Z,1009.92
2023-02-18T05:28:02.378Z,1009.92
2023-02-18T05:29:02.621Z,1009.82
2023-02-18T05:30:03.638Z,1009.96
2023-02-18T05:31:03.695Z,1009.88
2023-02-18T05:32:03.636Z,1009.91
2023-02-18T05:33:04.925Z,1009.90
2023-02-18T05:34:03.422Z,1009.87
2023-02-18T05:35:03.593Z,1009.79
2023-02-18T05:36:03.771Z,1009.85
2023-02-18T05:37:05.530Z,1009.79
2023-02-18T05:38:04.153Z,1009.75
2023-02-18T05:39:05.105Z,1009.86
2023-02-18T05:40:04.514Z,1009.76
2023-02-18T05:41:05.611Z,1009.76
2023-02-18T05:42:04.915Z,1009.71
2023-02-18T05:43:05.078Z,1009.73
2023-02-18T05:44:05.233Z,1009.72
2023-02-18T05:45:05.425Z,1009.73
2023-02-18T05:46:06.860Z,1009.75
2023-02-18T05:47:05.821Z,1009.76
2023-02-18T05:48:06.032Z,1009.66
2023-02-18T05:49:06.208Z,1009.66
2023-02-18T05:50:07.081Z,1009.74
2023-02-18T05:51:07.106Z,1009.66
2023-02-18T05:52:06.632Z,1009.64
2023-02-18T05:53:06.838Z,1009.64
2023-02-18T05:54:07.012Z,1009.61
2023-02-18T05:55:07.199Z,1009.56
2023-02-18T05:56:07.851Z,1009.61
2023-02-18T05:57:07.525Z,1009.58
2023-02-18T05:58:07.730Z,1009.49
2023-02-18T05:59:07.915Z,1009.45
2023-02-18T06:00:08.092Z,1009.48
2023-02-18T06:01:08.274Z,1009.43
2023-02-18T06:02:09.073Z,1009.39
2023-02-18T06:03:08.597Z,1009.45
2023-02-18T06:04:08.799Z,1009.34
2023-02-18T06:05:09.122Z,1009.40
2023-02-18T06:06:09.571Z,1009.41
2023-02-18T06:07:09.396Z,1009.36
2023-02-18T06:08:09.575Z,1009.29
2023-02-18T06:09:42.658Z,1009.39
2023-02-18T06:10:10.648Z,1009.31
2023-02-18T06:11:10.607Z,1009.21
2023-02-18T06:12:11.603Z,1009.23
2023-02-18T06:13:10.533Z,1009.34
2023-02-18T06:14:10.729Z,1009.20
2023-02-18T06:15:10.892Z,1009.12
2023-02-18T06:16:11.525Z,1009.25
2023-02-18T06:17:11.348Z,1009.21
2023-02-18T06:18:11.516Z,1009.26
2023-02-18T06:19:12.470Z,1009.26
2023-02-18T06:20:12.605Z,1009.22
2023-02-18T06:21:12.036Z,1009.22
2023-02-18T06:22:12.232Z,1009.21
2023-02-18T06:23:12.389Z,1009.21
2023-02-18T06:24:12.578Z,1009.14
2023-02-18T06:25:12.757Z,1009.32
2023-02-18T06:26:12.927Z,1009.12
2023-02-18T06:27:13.114Z,1009.20
2023-02-18T06:28:14.127Z,1009.18
2023-02-18T06:29:13.662Z,1009.21
2023-02-18T06:30:14.678Z,1009.15
2023-02-18T06:31:13.906Z,1009.17
2023-02-18T06:32:14.177Z,1009.11
2023-02-18T06:33:14.270Z,1009.00
2023-02-18T06:34:15.109Z,1009.01
2023-02-18T06:35:14.626Z,1008.93
2023-02-18T06:36:14.790Z,1008.96
2023-02-18T06:37:14.982Z,1008.92
2023-02-18T06:38:17.107Z,1008.97
2023-02-18T06:39:15.361Z,1009.08
2023-02-18T06:40:16.107Z,1008.93
2023-02-18T06:41:15.787Z,1008.89
2023-02-18T06:42:16.650Z,1008.99
2023-02-18T06:43:17.124Z,1009.11
2023-02-18T06:44:16.367Z,1009.03
2023-02-18T06:45:16.594Z,1009.04
2023-02-18T06:46:16.819Z,1009.04
2023-02-18T06:47:18.109Z,1009.04
2023-02-18T06:48:18.168Z,1009.07
2023-02-18T06:49:17.410Z,1009.02
2023-02-18T06:50:17.666Z,1009.05
2023-02-18T06:51:18.650Z,1009.10
2023-02-18T06:52:17.911Z,1009.08
2023-02-18T06:53:18.609Z,1009.01
2023-02-18T06:54:19.114Z,1009.05
2023-02-18T06:55:18.563Z,1009.00
2023-02-18T06:56:18.725Z,1009.07
2023-02-18T06:57:19.657Z,1009.02
2023-02-18T06:58:19.023Z,1009.06
2023-02-18T06:59:19.177Z,1009.02
2023-02-18T07:00:19.331Z,1008.99
2023-02-18T07:01:20.110Z,1009.04
2023-02-18T07:02:19.624Z,1009.05
2023-02-18T07:03:19.785Z,1009.08
2023-02-18T07:04:19.934Z,1009.10
2023-02-18T07:05:21.113Z,1009.09
2023-02-18T07:06:20.254Z,1009.06
2023-02-18T07:07:20.423Z,1009.00
2023-02-18T07:08:20.606Z,1009.14
2023-02-18T07:09:20.802Z,1009.18
2023-02-18T07:10:21.005Z,1008.87
2023-02-18T07:11:21.175Z,1009.11
2023-02-18T07:12:21.360Z,1009.09
2023-02-18T07:13:21.540Z,1009.06
2023-02-18T07:14:21.707Z,1009.13
2023-02-18T07:15:21.874Z,1009.12
2023-02-18T07:16:22.084Z,1009.13
2023-02-18T07:17:22.258Z,1008.91
2023-02-18T07:18:22.457Z,1009.03
2023-02-18T07:19:22.640Z,1009.09
2023-02-18T07:20:22.812Z,1009.12
2023-02-18T07:21:22.985Z,1009.01
2023-02-18T07:22:24.115Z,1008.94
2023-02-18T07:23:24.114Z,1008.97
2023-02-18T07:24:24.154Z,1009.05
2023-02-18T07:25:23.685Z,1008.96
2023-02-18T07:26:23.874Z,1008.98
2023-02-18T07:27:24.052Z,1009.08
2023-02-18T07:28:24.227Z,1009.04
2023-02-18T07:29:24.390Z,1009.03
2023-02-18T07:30:26.002Z,1008.94
2023-02-18T07:31:24.838Z,1009.01
2023-02-18T07:32:24.957Z,1008.94
2023-02-18T07:33:25.131Z,1008.83
2023-02-18T07:34:25.315Z,1008.91
2023-02-18T07:35:25.497Z,1008.92
2023-02-18T07:36:25.701Z,1008.93
2023-02-18T07:37:25.898Z,1008.96
2023-02-18T07:38:26.087Z,1008.94
2023-02-18T07:39:26.278Z,1008.98
2023-02-18T07:40:27.118Z,1008.83
2023-02-18T07:41:26.657Z,1009.17
2023-02-18T07:42:26.850Z,1009.18
2023-02-18T07:43:27.028Z,1009.20
2023-02-18T07:44:28.169Z,1009.17
2023-02-18T07:45:27.469Z,1009.29
2023-02-18T07:46:27.663Z,1009.31
2023-02-18T07:47:29.122Z,1009.35
2023-02-18T07:48:28.016Z,1009.35
2023-02-18T07:49:28.676Z,1009.42
2023-02-18T07:50:28.712Z,1009.44
2023-02-18T07:51:28.544Z,1009.56
2023-02-18T07:52:28.732Z,1009.41
2023-02-18T07:53:28.922Z,1009.58
2023-02-18T07:54:29.121Z,1009.47
2023-02-18T07:55:29.310Z,1009.39
2023-02-18T07:56:29.501Z,1009.44
2023-02-18T07:57:29.669Z,1009.45
2023-02-18T07:58:30.488Z,1009.45
2023-02-18T07:59:29.994Z,1009.36
2023-02-18T08:00:31.631Z,1009.33
2023-02-18T08:01:30.990Z,1009.49
2023-02-18T08:02:32.134Z,1009.45
2023-02-18T08:03:30.752Z,1009.41
2023-02-18T08:04:30.949Z,1009.46
2023-02-18T08:05:31.119Z,1009.33
2023-02-18T08:06:31.225Z,1009.43
2023-02-18T08:07:32.369Z,1009.41
2023-02-18T08:08:32.174Z,1009.42
2023-02-18T08:09:31.818Z,1009.43
2023-02-18T08:10:31.993Z,1009.51
2023-02-18T08:11:33.142Z,1009.52
2023-02-18T08:12:32.248Z,1009.51
2023-02-18T08:13:32.433Z,1009.57
2023-02-18T08:14:33.136Z,1009.59
2023-02-18T08:15:32.772Z,1009.47
2023-02-18T08:16:33.998Z,1009.46
2023-02-18T08:17:33.196Z,1009.48
2023-02-18T08:18:33.363Z,1009.55
2023-02-18T08:19:33.689Z,1009.51
2023-02-18T08:20:36.602Z,1009.55
2023-02-18T08:21:33.984Z,1009.61
2023-02-18T08:22:34.640Z,1009.60
2023-02-18T08:23:35.142Z,1009.62
2023-02-18T08:24:34.408Z,1009.63
2023-02-18T08:25:35.142Z,1009.58
2023-02-18T08:26:34.791Z,1009.61
2023-02-18T08:27:34.936Z,1009.55
2023-02-18T08:28:35.083Z,1009.61
2023-02-18T08:29:36.141Z,1009.70
2023-02-18T08:30:35.456Z,1009.64
2023-02-18T08:31:35.653Z,1009.67
2023-02-18T08:32:35.730Z,1009.60
2023-02-18T08:33:35.881Z,1009.49
2023-02-18T08:34:36.040Z,1009.65
2023-02-18T08:35:36.205Z,1009.53
2023-02-18T08:36:36.361Z,1009.53
2023-02-18T08:37:53.126Z,1009.61
2023-02-18T08:38:37.637Z,1009.49
2023-02-18T08:39:39.209Z,1009.37
2023-02-18T08:40:38.644Z,1009.52
2023-02-18T08:41:37.670Z,1009.39
2023-02-18T08:42:38.150Z,1009.29
2023-02-18T08:43:37.529Z,1009.20
2023-02-18T08:44:37.654Z,1009.36
2023-02-18T08:45:37.807Z,1009.05
2023-02-18T08:46:38.720Z,1008.93
2023-02-18T08:48:13.655Z,1008.96
2023-02-18T08:48:39.269Z,1008.89
2023-02-18T08:49:38.447Z,1008.83
2023-02-18T08:50:39.150Z,1008.76
2023-02-18T08:51:38.815Z,1008.80
2023-02-18T08:52:39.687Z,1008.78
2023-02-18T08:53:40.167Z,1008.85
2023-02-18T08:54:39.483Z,1008.79
2023-02-18T08:55:40.184Z,1008.83
2023-02-18T08:56:40.649Z,1008.82
2023-02-18T08:57:40.055Z,1008.89
2023-02-18T08:58:41.010Z,1008.77
2023-02-18T08:59:40.433Z,1008.97
2023-02-18T09:00:40.630Z,1008.91
2023-02-18T09:01:41.705Z,1008.86
2023-02-18T09:02:41.655Z,1008.95
2023-02-18T09:03:41.190Z,1008.97
2023-02-18T09:04:41.354Z,1009.02
2023-02-18T09:05:42.151Z,1009.02
2023-02-18T09:06:41.682Z,1008.92
2023-02-18T09:07:41.871Z,1008.97
2023-02-18T09:08:42.663Z,1008.96
2023-02-18T09:09:42.198Z,1008.95
2023-02-18T09:10:44.807Z,1008.93
2023-02-18T09:11:43.190Z,1008.93
2023-02-18T09:12:43.692Z,1008.97
2023-02-18T09:13:43.212Z,1008.86
2023-02-18T09:14:43.652Z,1008.88
2023-02-18T09:15:43.279Z,1008.89
2023-02-18T09:16:45.170Z,1008.89
2023-02-18T09:17:44.155Z,1008.75
2023-02-18T09:18:45.156Z,1008.99
2023-02-18T09:19:43.926Z,1008.94
2023-02-18T09:20:44.090Z,1008.81
2023-02-18T09:21:45.190Z,1008.84
2023-02-18T09:22:45.151Z,1008.87
2023-02-18T09:23:44.558Z,1008.77
2023-02-18T09:24:44.752Z,1008.67
2023-02-18T09:25:44.940Z,1008.70
2023-02-18T09:26:45.120Z,1008.73
2023-02-18T09:27:45.289Z,1008.73
2023-02-18T09:28:45.445Z,1008.73
2023-02-18T09:29:45.617Z,1008.73
2023-02-18T09:30:46.677Z,1008.72
2023-02-18T09:31:46.133Z,1008.81
2023-02-18T09:32:46.170Z,1008.89
2023-02-18T09:33:47.184Z,1008.71
2023-02-18T09:34:46.544Z,1008.96
2023-02-18T09:35:48.155Z,1008.79
2023-02-18T09:36:46.898Z,1008.80
2023-02-18T09:37:47.061Z,1008.74
2023-02-18T09:38:47.220Z,1008.78
2023-02-18T09:39:48.660Z,1008.89
2023-02-18T09:40:48.193Z,1008.94
2023-02-18T09:41:48.657Z,1008.85
2023-02-18T09:42:47.906Z,1008.82
2023-02-18T09:43:48.100Z,1008.98
2023-02-18T09:44:48.276Z,1008.93
2023-02-18T09:45:48.493Z,1009.11
2023-02-18T09:46:48.699Z,1009.15
2023-02-18T09:47:48.888Z,1009.10
2023-02-18T09:48:49.102Z,1009.16
2023-02-18T09:49:50.029Z,1009.17
2023-02-18T09:50:49.440Z,1009.27
2023-02-18T09:51:49.605Z,1009.24
2023-02-18T09:52:49.782Z,1009.25
2023-02-18T09:53:50.209Z,1009.14
2023-02-18T09:54:50.096Z,1009.17
2023-02-18T09:55:51.162Z,1009.36
2023-02-18T09:56:50.397Z,1009.16
2023-02-18T09:57:50.553Z,1009.25
2023-02-18T09:58:50.715Z,1009.15
2023-02-18T09:59:50.897Z,1009.08
2023-02-18T10:00:52.531Z,1009.15
2023-02-18T10:01:51.311Z,1009.18
2023-02-18T10:02:51.477Z,1009.14
2023-02-18T10:03:51.960Z,1009.08
2023-02-18T10:04:51.878Z,1009.13
2023-02-18T10:05:52.706Z,1009.11
2023-02-18T10:06:52.197Z,1009.07
2023-02-18T10:07:53.160Z,1009.09
2023-02-18T10:08:52.570Z,1009.14
2023-02-18T10:09:52.770Z,1008.95
2023-02-18T10:10:52.963Z,1008.96
2023-02-18T10:11:53.140Z,1008.89
2023-02-18T10:12:53.361Z,1008.97
2023-02-18T10:13:53.521Z,1008.96
2023-02-18T10:14:53.669Z,1009.04
2023-02-18T10:15:54.738Z,1009.13
2023-02-18T10:16:55.172Z,1009.06
2023-02-18T10:17:56.172Z,1009.01
2023-02-18T10:18:54.392Z,1009.13
2023-02-18T10:19:54.552Z,1009.08
2023-02-18T10:20:54.725Z,1009.02
2023-02-18T10:21:54.855Z,1009.20
2023-02-18T10:22:55.714Z,1009.20
2023-02-18T10:23:56.214Z,1009.31
2023-02-18T10:24:56.167Z,1009.31
2023-02-18T10:25:55.724Z,1009.19
2023-02-18T10:26:55.881Z,1009.28
2023-02-18T10:27:56.665Z,1009.24
2023-02-18T10:28:56.175Z,1009.32
2023-02-18T10:29:56.341Z,1009.25
2023-02-18T10:30:56.762Z,1009.17
2023-02-18T10:31:56.822Z,1009.31
2023-02-18T10:32:57.677Z,1009.32
2023-02-18T10:33:57.709Z,1009.34
2023-02-18T10:35:00.264Z,1009.39
2023-02-18T10:35:58.374Z,1009.26
2023-02-18T10:36:57.530Z,1009.34
2023-02-18T10:37:57.696Z,1009.17
2023-02-18T10:38:57.835Z,1009.09
2023-02-18T10:39:59.171Z,1009.14
2023-02-18T10:40:59.930Z,1009.13
2023-02-18T10:42:00.217Z,1009.28
2023-02-18T10:42:58.586Z,1009.35
2023-02-18T10:44:00.169Z,1009.34
2023-02-18T10:44:58.941Z,1009.32
2023-02-18T10:45:59.099Z,1009.36
2023-02-18T10:47:00.169Z,1009.35
2023-02-18T10:48:00.166Z,1009.47
2023-02-18T10:48:59.584Z,1009.51
2023-02-18T10:50:00.671Z,1009.48
2023-02-18T10:50:59.982Z,1009.36
2023-02-18T10:52:00.159Z,1009.37
2023-02-18T10:53:00.319Z,1009.48
2023-02-18T10:54:00.510Z,1009.41
2023-02-18T10:55:01.696Z,1009.47
2023-02-18T10:56:00.840Z,1009.36
2023-02-18T10:57:04.632Z,1009.37
2023-02-18T10:58:01.156Z,1009.38
2023-02-18T10:59:01.326Z,1009.37
2023-02-18T11:00:01.550Z,1009.32
2023-02-18T11:01:01.750Z,1009.41
2023-02-18T11:02:03.170Z,1009.43
2023-02-18T11:03:02.062Z,1009.33
2023-02-18T11:04:02.248Z,1009.36
2023-02-18T11:05:02.509Z,1009.28
2023-02-18T11:06:02.592Z,1009.36
2023-02-18T11:07:02.773Z,1009.16
2023-02-18T11:08:02.930Z,1009.15
2023-02-18T11:09:03.085Z,1009.17
2023-02-18T11:10:04.180Z,1009.22
2023-02-18T11:11:04.215Z,1009.32
2023-02-18T11:12:08.736Z,1009.25
2023-02-18T11:13:04.782Z,1009.22
2023-02-18T11:14:03.929Z,1009.16
2023-02-18T11:15:05.045Z,1009.11
2023-02-18T11:16:04.375Z,1009.19
2023-02-18T11:17:04.456Z,1009.16
2023-02-18T11:18:04.620Z,1009.09
2023-02-18T11:19:04.795Z,1009.15
2023-02-18T11:20:04.958Z,1009.19
2023-02-18T11:21:05.731Z,1009.19
2023-02-18T11:22:06.171Z,1009.25
2023-02-18T11:23:05.585Z,1009.20
2023-02-18T11:24:05.768Z,1009.26
2023-02-18T11:25:07.172Z,1009.26
2023-02-18T11:26:06.194Z,1009.29
2023-02-18T11:27:06.380Z,1009.36
2023-02-18T11:28:08.039Z,1009.18
2023-02-18T11:29:07.682Z,1009.17
2023-02-18T11:30:07.687Z,1009.25
2023-02-18T11:31:08.130Z,1009.31
2023-02-18T11:32:07.358Z,1009.25
2023-02-18T11:33:07.330Z,1009.16
2023-02-18T11:34:08.178Z,1009.21
2023-02-18T11:35:07.729Z,1009.15
2023-02-18T11:36:07.890Z,1009.16
2023-02-18T11:37:08.053Z,1009.21
2023-02-18T11:38:08.249Z,1009.18
2023-02-18T11:39:09.676Z,1009.20
2023-02-18T11:40:08.574Z,1009.15
2023-02-18T11:41:09.092Z,1009.10
2023-02-18T11:42:08.910Z,1009.21
2023-02-18T11:43:10.073Z,1009.17
2023-02-18T11:44:09.209Z,1009.30
2023-02-18T11:45:09.372Z,1009.16
2023-02-18T11:46:09.528Z,1009.11
2023-02-18T11:47:09.659Z,1009.22
2023-02-18T11:48:09.823Z,1009.16
2023-02-18T11:49:09.993Z,1009.08
2023-02-18T11:50:10.688Z,1009.10
2023-02-18T11:51:10.731Z,1009.02
2023-02-18T11:52:11.177Z,1009.12
2023-02-18T11:53:10.701Z,1009.09
2023-02-18T11:54:10.868Z,1009.12
2023-02-18T11:55:11.022Z,1009.07
2023-02-18T11:56:11.190Z,1009.16
2023-02-18T11:57:11.342Z,1008.99
2023-02-18T11:58:12.226Z,1009.08
2023-02-18T11:59:11.617Z,1009.23
2023-02-18T12:00:11.783Z,1009.12
2023-02-18T12:01:11.951Z,1009.00
2023-02-18T12:02:13.720Z,1009.07
2023-02-18T12:03:12.752Z,1009.15
2023-02-18T12:04:13.692Z,1009.21
2023-02-18T12:05:13.251Z,1009.30
2023-02-18T12:06:12.835Z,1009.19
2023-02-18T12:07:13.005Z,1009.20